createdAt,value
2022-08-31T00:00:06.912Z,79.44
2022-08-31T00:02:49.537Z,79.43
2022-08-31T00:05:20.136Z,79.66
2022-08-31T00:07:50.351Z,79.94
2022-08-31T00:10:32.717Z,80.17
2022-08-31T00:13:08.687Z,80.33
2022-08-31T00:15:39.286Z,81.19
2022-08-31T00:18:09.724Z,81.09
2022-08-31T00:20:40.757Z,80.00
2022-08-31T00:23:14.333Z,79.85
2022-08-31T00:25:51.572Z,80.31
2022-08-31T00:28:22.864Z,80.58
2022-08-31T00:30:53.562Z,80.57
2022-08-31T00:33:23.649Z,81.05
2022-08-31T00:35:53.868Z,81.18
2022-08-31T00:38:25.077Z,81.93
2022-08-31T00:40:57.964Z,82.37
2022-08-31T00:43:44.117Z,83.01
2022-08-31T00:46:17.825Z,83.02
2022-08-31T00:48:56.732Z,82.85
2022-08-31T00:51:28.272Z,82.51
2022-08-31T00:53:58.806Z,82.83
2022-08-31T00:56:31.804Z,83.02
2022-08-31T00:59:02.894Z,82.71
2022-08-31T01:01:33.355Z,82.61
2022-08-31T01:04:03.742Z,83.51
2022-08-31T01:06:34.515Z,83.50
2022-08-31T01:09:06.859Z,83.92
2022-08-31T01:11:42.337Z,83.65
2022-08-31T01:14:13.744Z,83.73
2022-08-31T01:16:50.141Z,84.15
2022-08-31T01:19:32.341Z,83.80
2022-08-31T01:22:14.500Z,83.13
2022-08-31T01:24:50.473Z,83.20
2022-08-31T01:27:28.656Z,83.16
2022-08-31T01:30:02.386Z,83.01
2022-08-31T01:32:32.709Z,83.35
2022-08-31T01:35:03.003Z,83.66
2022-08-31T01:37:33.182Z,83.70
2022-08-31T01:40:11.312Z,83.77
2022-08-31T01:42:41.991Z,84.49
2022-08-31T01:45:14.680Z,84.75
2022-08-31T01:47:45.086Z,84.73
2022-08-31T01:50:15.436Z,85.85
2022-08-31T01:52:45.657Z,86.72
2022-08-31T01:55:18.487Z,87.34
2022-08-31T01:57:48.775Z,86.95
2022-08-31T02:00:44.242Z,86.72
2022-08-31T02:03:14.718Z,86.59
2022-08-31T02:05:44.951Z,86.89
2022-08-31T02:08:15.441Z,87.26
2022-08-31T02:10:48.670Z,87.36
2022-08-31T02:13:19.677Z,87.21
2022-08-31T02:15:51.298Z,86.91
2022-08-31T02:18:21.524Z,87.38
2022-08-31T02:20:52.963Z,87.77
2022-08-31T02:23:23.612Z,88.06
2022-08-31T02:25:56.390Z,87.63
2022-08-31T02:28:26.781Z,87.98
2022-08-31T02:30:58.393Z,88.26
2022-08-31T02:33:28.674Z,87.98
2022-08-31T02:36:01.221Z,88.21
2022-08-31T02:38:31.615Z,88.62
2022-08-31T02:41:04.609Z,88.19
2022-08-31T02:43:35.320Z,88.06
2022-08-31T02:46:05.801Z,87.84
2022-08-31T02:48:41.886Z,87.34
2022-08-31T02:51:16.372Z,87.58
2022-08-31T02:53:50.883Z,87.89
2022-08-31T02:56:23.958Z,88.35
2022-08-31T02:58:55.325Z,88.18
2022-08-31T03:01:29.356Z,88.10
2022-08-31T03:04:00.997Z,87.85
2022-08-31T03:06:31.937Z,87.56
2022-08-31T03:09:02.792Z,87.30
2022-08-31T03:11:35.864Z,87.33
2022-08-31T03:14:07.140Z,87.74
2022-08-31T03:16:37.431Z,87.92
2022-08-31T03:19:08.111Z,87.60
2022-08-31T03:21:39.746Z,87.49
2022-08-31T03:24:10.544Z,87.12
2022-08-31T03:26:44.234Z,87.48
2022-08-31T03:29:14.850Z,88.04
2022-08-31T03:32:04.616Z,88.59
2022-08-31T03:34:35.655Z,89.18
2022-08-31T03:37:06.037Z,89.25
2022-08-31T03:39:36.562Z,90.21
2022-08-31T03:42:09.913Z,90.25
2022-08-31T03:44:41.678Z,90.58
2022-08-31T03:47:19.780Z,91.09
2022-08-31T03:49:52.138Z,91.51
2022-08-31T03:52:39.901Z,91.98
2022-08-31T03:55:16.820Z,91.73
2022-08-31T03:57:49.725Z,91.71
2022-08-31T04:00:20.269Z,91.87
2022-08-31T04:03:00.210Z,92.07
2022-08-31T04:05:39.483Z,92.24
2022-08-31T04:08:45.171Z,92.16
2022-08-31T04:11:45.500Z,92.35
2022-08-31T04:14:37.214Z,92.27
2022-08-31T04:17:26.195Z,91.58
2022-08-31T04:20:06.933Z,91.63
2022-08-31T04:22:46.578Z,91.56
2022-08-31T04:25:45.872Z,91.61
2022-08-31T04:28:16.151Z,91.04
2022-08-31T04:30:51.303Z,90.56
2022-08-31T04:33:21.543Z,90.58
2022-08-31T04:35:52.000Z,90.55
2022-08-31T04:38:22.982Z,90.52
2022-08-31T04:40:53.272Z,90.74
2022-08-31T04:43:24.322Z,90.68
2022-08-31T04:45:57.634Z,91.24
2022-08-31T04:48:28.040Z,91.38
2022-08-31T04:51:04.516Z,91.53
2022-08-31T04:53:36.401Z,91.38
2022-08-31T04:56:14.579Z,91.01
2022-08-31T04:58:47.942Z,90.89
2022-08-31T05:01:24.234Z,89.11
2022-08-31T05:04:32.961Z,89.06
2022-08-31T05:07:03.282Z,89.10
2022-08-31T05:09:33.632Z,89.44
2022-08-31T05:12:04.190Z,90.62
2022-08-31T05:14:35.413Z,90.34
2022-08-31T05:17:16.757Z,89.95
2022-08-31T05:19:47.416Z,89.67
2022-08-31T05:22:19.427Z,89.92
2022-08-31T05:24:51.907Z,89.50
2022-08-31T05:27:22.084Z,89.93
2022-08-31T05:29:52.258Z,89.89
2022-08-31T05:32:44.385Z,89.72
2022-08-31T05:35:15.426Z,90.77
2022-08-31T05:37:48.426Z,90.93
2022-08-31T05:40:18.743Z,91.08
2022-08-31T05:42:48.982Z,91.58
2022-08-31T05:45:19.611Z,91.30
2022-08-31T05:47:53.805Z,91.08
2022-08-31T05:50:24.078Z,91.47
2022-08-31T05:52:54.254Z,90.19
2022-08-31T05:55:24.468Z,88.84
2022-08-31T05:57:54.650Z,88.01
2022-08-31T06:00:25.575Z,87.92
2022-08-31T06:03:09.126Z,88.19
2022-08-31T06:05:39.331Z,87.77
2022-08-31T06:08:13.207Z,87.66
2022-08-31T06:10:46.684Z,88.05
2022-08-31T06:13:17.586Z,86.94
2022-08-31T06:15:48.139Z,86.18
2022-08-31T06:18:21.040Z,86.31
2022-08-31T06:20:52.172Z,86.16
2022-08-31T06:23:22.819Z,86.55
2022-08-31T06:25:54.697Z,85.87
2022-08-31T06:28:25.118Z,86.46
2022-08-31T06:30:55.960Z,86.28
2022-08-31T06:33:29.822Z,85.65
2022-08-31T06:36:17.519Z,85.70
2022-08-31T06:39:02.693Z,85.78
2022-08-31T06:41:52.762Z,85.93
2022-08-31T06:44:31.106Z,85.76
2022-08-31T06:47:23.486Z,85.28
2022-08-31T06:49:57.429Z,83.96
2022-08-31T06:52:27.772Z,82.97
2022-08-31T06:55:20.727Z,82.00
2022-08-31T06:58:11.886Z,81.86
2022-08-31T07:00:45.803Z,81.29
2022-08-31T07:03:33.384Z,81.07
2022-08-31T07:06:12.910Z,81.34
2022-08-31T07:08:45.062Z,81.15
2022-08-31T07:11:17.487Z,80.90
2022-08-31T07:13:47.744Z,80.56
2022-08-31T07:16:22.211Z,79.55
2022-08-31T07:18:54.832Z,79.39
2022-08-31T07:21:32.046Z,79.29
2022-08-31T07:24:06.102Z,79.36
2022-08-31T07:26:40.942Z,79.06
2022-08-31T07:29:15.019Z,78.73
2022-08-31T07:31:46.901Z,79.14
2022-08-31T07:34:20.978Z,79.13
2022-08-31T07:37:27.027Z,78.56
2022-08-31T07:40:10.704Z,78.36
2022-08-31T07:42:45.124Z,78.52
2022-08-31T07:45:22.633Z,78.30
2022-08-31T07:47:56.389Z,77.42
2022-08-31T07:50:31.852Z,77.60
2022-08-31T07:53:25.046Z,77.11
2022-08-31T07:56:03.787Z,76.59
2022-08-31T07:58:35.526Z,76.08
2022-08-31T08:01:05.821Z,76.70
2022-08-31T08:03:36.684Z,75.89
2022-08-31T08:06:32.443Z,75.44
2022-08-31T08:09:27.049Z,74.95
2022-08-31T08:12:07.763Z,74.57
2022-08-31T08:14:46.868Z,73.90
2022-08-31T08:17:52.632Z,73.07
2022-08-31T08:20:35.396Z,72.54
2022-08-31T08:23:14.729Z,72.71
2022-08-31T08:26:21.281Z,71.47
2022-08-31T08:29:17.744Z,70.29
2022-08-31T08:31:52.329Z,70.14
2022-08-31T08:34:24.158Z,69.58
2022-08-31T08:37:03.855Z,68.90
2022-08-31T08:39:34.079Z,66.58
2022-08-31T08:42:17.732Z,66.29
2022-08-31T08:44:48.375Z,65.00
2022-08-31T08:47:24.004Z,62.38
2022-08-31T08:50:06.589Z,60.15
2022-08-31T08:52:43.442Z,55.95
2022-08-31T08:55:18.409Z,54.60
2022-08-31T08:57:56.155Z,52.24
2022-08-31T09:00:28.807Z,51.49
2022-08-31T09:03:09.602Z,49.70
2022-08-31T09:06:13.008Z,48.43
2022-08-31T09:09:19.899Z,45.19
2022-08-31T09:12:19.096Z,44.16
2022-08-31T09:15:18.033Z,43.06
2022-08-31T09:18:00.002Z,44.30
2022-08-31T09:20:33.946Z,44.49
2022-08-31T09:23:08.097Z,42.57
2022-08-31T09:25:52.674Z,43.83
2022-08-31T09:28:49.681Z,44.66
2022-08-31T09:31:40.649Z,45.39
2022-08-31T09:34:16.906Z,46.88
2022-08-31T09:36:47.570Z,47.24
2022-08-31T09:39:25.051Z,46.02
2022-08-31T09:42:04.776Z,45.45
2022-08-31T09:44:37.974Z,45.18
2022-08-31T09:47:52.991Z,44.40
2022-08-31T09:50:35.785Z,45.11
2022-08-31T09:53:29.276Z,45.57
2022-08-31T09:56:17.016Z,44.28
2022-08-31T09:58:51.377Z,43.60
2022-08-31T10:01:29.184Z,44.41
2022-08-31T10:04:23.562Z,46.24
2022-08-31T10:07:01.894Z,45.27
2022-08-31T10:09:45.145Z,45.05
2022-08-31T10:12:25.961Z,45.89
2022-08-31T10:15:04.179Z,47.09
2022-08-31T10:17:39.925Z,47.75
2022-08-31T10:20:18.724Z,48.88
2022-08-31T10:22:54.352Z,50.15
2022-08-31T10:25:31.225Z,50.49
2022-08-31T10:28:12.702Z,48.96
2022-08-31T10:30:52.810Z,48.82
2022-08-31T10:33:47.266Z,48.93
2022-08-31T10:36:20.789Z,49.94
2022-08-31T10:38:52.783Z,49.66
2022-08-31T10:41:30.947Z,48.78
2022-08-31T10:44:10.059Z,48.71
2022-08-31T10:46:40.419Z,48.03
2022-08-31T10:49:11.771Z,47.44
2022-08-31T10:51:53.269Z,47.22
2022-08-31T10:54:35.617Z,45.08
2022-08-31T10:57:25.918Z,44.87
2022-08-31T11:00:04.696Z,45.33
2022-08-31T11:02:48.875Z,44.77
2022-08-31T11:05:37.455Z,44.38
2022-08-31T11:08:35.326Z,44.50
2022-08-31T11:11:09.183Z,43.96
2022-08-31T11:14:02.276Z,44.28
2022-08-31T11:16:55.269Z,44.13
2022-08-31T11:20:00.208Z,44.51
2022-08-31T11:23:03.013Z,43.85
2022-08-31T11:26:24.219Z,43.62
2022-08-31T11:29:00.242Z,45.17
2022-08-31T11:31:36.137Z,44.76
2022-08-31T11:34:17.456Z,43.94
2022-08-31T11:36:54.907Z,44.01
2022-08-31T11:39:44.562Z,43.54
2022-08-31T11:43:01.536Z,43.62
2022-08-31T11:45:34.706Z,43.31
2022-08-31T11:48:05.048Z,44.11
2022-08-31T11:51:07.796Z,43.46
2022-08-31T11:53:44.573Z,43.11
2022-08-31T11:56:15.359Z,42.89
2022-08-31T11:58:50.368Z,43.09
2022-08-31T12:01:43.213Z,43.16
2022-08-31T12:05:03.172Z,43.07
2022-08-31T12:07:43.214Z,42.19
2022-08-31T12:10:36.983Z,41.30
2022-08-31T12:13:40.595Z,41.49
2022-08-31T12:16:49.835Z,41.57
2022-08-31T12:20:01.897Z,41.84
2022-08-31T12:23:30.436Z,41.29
2022-08-31T12:26:16.593Z,41.04
2022-08-31T12:29:20.094Z,41.49
2022-08-31T12:32:19.979Z,41.26
2022-08-31T12:35:11.570Z,41.59
2022-08-31T12:37:43.033Z,41.63
2022-08-31T12:40:27.153Z,40.22
2022-08-31T12:43:06.111Z,39.58
2022-08-31T12:46:32.136Z,40.59
2022-08-31T12:49:22.219Z,40.79
2022-08-31T12:51:58.050Z,40.96
2022-08-31T12:55:04.469Z,41.49
2022-08-31T12:58:08.890Z,39.56
2022-08-31T13:00:43.600Z,41.20
2022-08-31T13:03:23.420Z,42.47
2022-08-31T13:06:10.120Z,42.94
2022-08-31T13:08:44.766Z,41.87
2022-08-31T13:11:41.200Z,42.21
2022-08-31T13:14:18.739Z,41.49
2022-08-31T13:16:53.719Z,41.83
2022-08-31T13:19:27.579Z,41.55
2022-08-31T13:22:05.239Z,42.32
2022-08-31T13:24:41.326Z,40.79
2022-08-31T13:27:19.760Z,41.74
2022-08-31T13:29:53.476Z,41.63
2022-08-31T13:32:36.331Z,42.78
2022-08-31T13:35:15.275Z,41.50
2022-08-31T13:38:05.069Z,40.94
2022-08-31T13:40:40.790Z,41.22
2022-08-31T13:43:13.677Z,41.78
2022-08-31T13:45:58.677Z,41.52
2022-08-31T13:48:35.151Z,40.50
2022-08-31T13:51:13.609Z,40.40
2022-08-31T13:53:49.611Z,40.89
2022-08-31T13:56:38.194Z,40.40
2022-08-31T13:59:36.190Z,40.01
2022-08-31T14:02:30.854Z,38.74
2022-08-31T14:05:13.061Z,37.25
2022-08-31T14:08:02.221Z,36.09
2022-08-31T14:10:40.729Z,36.97
2022-08-31T14:13:21.570Z,36.85
2022-08-31T14:15:56.472Z,37.00
2022-08-31T14:18:30.636Z,37.99
2022-08-31T14:21:24.055Z,36.36
2022-08-31T14:24:01.500Z,35.99
2022-08-31T14:26:37.595Z,36.25
2022-08-31T14:29:12.482Z,36.21
2022-08-31T14:31:49.474Z,36.61
2022-08-31T14:34:30.479Z,36.40
2022-08-31T14:37:06.591Z,37.46
2022-08-31T14:39:41.837Z,38.37
2022-08-31T14:42:20.007Z,38.98
2022-08-31T14:44:56.853Z,39.38
2022-08-31T14:47:30.468Z,39.38
2022-08-31T14:50:05.942Z,39.88
2022-08-31T14:52:36.983Z,40.68
2022-08-31T14:55:11.245Z,41.43
2022-08-31T14:57:47.042Z,41.63
2022-08-31T15:00:23.423Z,41.87
2022-08-31T15:02:56.738Z,42.79
2022-08-31T15:05:28.530Z,42.53
2022-08-31T15:07:59.708Z,42.12
2022-08-31T15:10:30.586Z,42.23
2022-08-31T15:13:08.753Z,42.78
2022-08-31T15:15:39.310Z,42.86
2022-08-31T15:18:09.993Z,43.73
2022-08-31T15:20:42.012Z,43.94
2022-08-31T15:23:12.264Z,44.20
2022-08-31T15:25:45.287Z,44.71
2022-08-31T15:28:18.599Z,45.35
2022-08-31T15:30:48.898Z,45.68
2022-08-31T15:33:21.661Z,46.18
2022-08-31T15:35:52.079Z,46.99
2022-08-31T15:38:24.223Z,46.87
2022-08-31T15:40:54.440Z,47.54
2022-08-31T15:43:27.314Z,47.52
2022-08-31T15:45:57.676Z,47.69
2022-08-31T15:48:40.873Z,48.31
2022-08-31T15:51:21.947Z,49.03
2022-08-31T15:54:18.392Z,49.42
2022-08-31T15:56:45.526Z,49.47
2022-08-31T15:59:18.332Z,50.22
2022-08-31T16:01:48.552Z,50.56
2022-08-31T16:04:23.465Z,51.36
2022-08-31T16:06:55.642Z,51.19
2022-08-31T16:09:26.076Z,50.87
2022-08-31T16:11:56.423Z,52.05
2022-08-31T16:14:29.561Z,52.13
2022-08-31T16:17:00.167Z,52.27
2022-08-31T16:19:35.434Z,52.97
2022-08-31T16:22:08.198Z,52.50
2022-08-31T16:24:39.837Z,52.50
2022-08-31T16:27:13.114Z,52.39
2022-08-31T16:29:51.757Z,53.16
2022-08-31T16:32:22.457Z,53.12
2022-08-31T16:34:52.742Z,53.42
2022-08-31T16:37:23.982Z,53.66
2022-08-31T16:39:54.326Z,53.97
2022-08-31T16:42:24.974Z,54.11
2022-08-31T16:45:01.978Z,54.55
2022-08-31T16:47:33.038Z,54.62
2022-08-31T16:50:00.921Z,54.86
2022-08-31T16:52:32.563Z,54.85
2022-08-31T16:55:02.800Z,55.61
2022-08-31T16:57:35.328Z,55.15
2022-08-31T17:00:10.154Z,55.62
2022-08-31T17:02:40.381Z,56.68
2022-08-31T17:05:12.979Z,56.54
2022-08-31T17:07:43.639Z,56.86
2022-08-31T17:10:15.085Z,56.70
2022-08-31T17:12:48.437Z,56.93
2022-08-31T17:15:24.092Z,57.63
2022-08-31T17:17:55.240Z,57.37
2022-08-31T17:20:25.440Z,57.98
2022-08-31T17:22:57.279Z,58.00
2022-08-31T17:25:27.504Z,58.55
2022-08-31T17:28:01.040Z,59.02
2022-08-31T17:30:34.609Z,58.93
2022-08-31T17:33:06.039Z,59.17
2022-08-31T17:35:36.967Z,59.49
2022-08-31T17:38:07.241Z,59.43
2022-08-31T17:40:37.536Z,59.48
2022-08-31T17:43:07.868Z,59.40
2022-08-31T17:45:41.302Z,59.74
2022-08-31T17:48:11.584Z,59.80
2022-08-31T17:50:45.036Z,60.10
2022-08-31T17:53:15.218Z,60.00
2022-08-31T17:55:45.399Z,59.99
2022-08-31T17:58:15.726Z,60.15
2022-08-31T18:00:50.664Z,60.47
2022-08-31T18:03:20.918Z,60.78
2022-08-31T18:05:51.954Z,60.71
2022-08-31T18:08:24.551Z,61.56
2022-08-31T18:10:56.669Z,61.52
2022-08-31T18:13:27.064Z,61.83
2022-08-31T18:16:03.234Z,62.46
2022-08-31T18:18:33.535Z,62.28
2022-08-31T18:21:08.366Z,62.55
2022-08-31T18:23:39.024Z,63.26
2022-08-31T18:26:16.863Z,63.75
2022-08-31T18:28:47.792Z,64.49
2022-08-31T18:31:30.816Z,65.35
2022-08-31T18:34:01.293Z,64.77
2022-08-31T18:36:37.210Z,64.73
2022-08-31T18:39:10.657Z,64.75
2022-08-31T18:41:53.542Z,65.13
2022-08-31T18:44:36.202Z,65.21
2022-08-31T18:47:13.189Z,65.72
2022-08-31T18:49:44.795Z,66.04
2022-08-31T18:52:19.342Z,65.98
2022-08-31T18:54:51.925Z,66.66
2022-08-31T18:57:25.057Z,66.65
2022-08-31T18:59:55.433Z,67.01
2022-08-31T19:02:28.358Z,67.05
2022-08-31T19:04:58.824Z,67.38
2022-08-31T19:07:29.141Z,67.35
2022-08-31T19:09:59.341Z,67.43
2022-08-31T19:12:29.511Z,67.78
2022-08-31T19:15:00.174Z,67.87
2022-08-31T19:17:32.877Z,68.40
2022-08-31T19:20:04.110Z,68.86
2022-08-31T19:22:34.345Z,68.62
2022-08-31T19:25:04.922Z,68.75
2022-08-31T19:27:35.390Z,69.06
2022-08-31T19:30:06.144Z,69.41
2022-08-31T19:32:39.557Z,69.54
2022-08-31T19:35:10.749Z,69.24
2022-08-31T19:37:40.899Z,69.71
2022-08-31T19:40:17.947Z,69.05
2022-08-31T19:45:44.965Z,68.95
2022-08-31T19:48:23.932Z,69.27
2022-08-31T19:50:56.968Z,69.81
2022-08-31T19:53:27.956Z,69.17
2022-08-31T19:55:58.372Z,69.56
2022-08-31T19:58:28.628Z,69.59
2022-08-31T20:01:01.142Z,69.86
2022-08-31T20:03:34.446Z,69.72
2022-08-31T20:06:09.608Z,70.07
2022-08-31T20:08:39.956Z,69.91
2022-08-31T20:11:11.239Z,70.31
2022-08-31T20:13:42.966Z,70.22
2022-08-31T20:16:14.880Z,70.20
2022-08-31T20:18:49.108Z,70.63
2022-08-31T20:21:23.538Z,70.95
2022-08-31T20:24:00.757Z,70.96
2022-08-31T20:26:36.113Z,71.09
2022-08-31T20:29:10.960Z,71.18
2022-08-31T20:31:45.708Z,71.50
2022-08-31T20:34:21.958Z,71.72
2022-08-31T20:36:58.545Z,72.08
2022-08-31T20:39:35.411Z,72.84
2022-08-31T20:42:07.353Z,72.77
2022-08-31T20:44:40.256Z,73.20
2022-08-31T20:47:25.400Z,73.06
2022-08-31T20:50:01.267Z,72.91
2022-08-31T20:52:35.143Z,72.94
2022-08-31T20:55:08.671Z,73.07
2022-08-31T20:57:40.977Z,73.32
2022-08-31T21:00:15.846Z,73.69
2022-08-31T21:02:46.720Z,73.83
2022-08-31T21:05:38.502Z,73.55
2022-08-31T21:08:09.466Z,72.88
2022-08-31T21:10:41.184Z,73.05
2022-08-31T21:13:15.683Z,72.93
2022-08-31T21:15:48.687Z,72.97
2022-08-31T21:18:19.741Z,73.22
2022-08-31T21:20:52.796Z,73.50
2022-08-31T21:23:23.650Z,73.23
2022-08-31T21:25:55.299Z,73.79
2022-08-31T21:28:25.612Z,73.96
2022-08-31T21:31:15.513Z,73.82
2022-08-31T21:33:49.745Z,73.60
2022-08-31T21:36:26.817Z,74.23
2022-08-31T21:38:59.409Z,73.80
2022-08-31T21:41:32.315Z,73.57
2022-08-31T21:44:03.271Z,73.69
2022-08-31T21:46:34.768Z,73.89
2022-08-31T21:49:05.899Z,73.50
2022-08-31T21:51:44.028Z,73.73
2022-08-31T21:54:16.403Z,74.26
2022-08-31T21:56:50.666Z,74.05
2022-08-31T21:59:24.640Z,74.53
2022-08-31T22:01:59.200Z,75.60
2022-08-31T22:04:30.223Z,76.31
2022-08-31T22:07:03.640Z,76.03
2022-08-31T22:09:35.048Z,75.37
2022-08-31T22:12:07.543Z,74.64
2022-08-31T22:14:41.495Z,75.42
2022-08-31T22:17:14.434Z,75.45
2022-08-31T22:19:45.074Z,75.38
2022-08-31T22:22:19.600Z,76.01
2022-08-31T22:24:49.925Z,76.19
2022-08-31T22:27:20.102Z,75.99
2022-08-31T22:29:50.519Z,76.45
2022-08-31T22:32:20.934Z,76.74
2022-08-31T22:34:51.212Z,76.56
2022-08-31T22:37:24.055Z,76.72
2022-08-31T22:39:55.408Z,77.08
2022-08-31T22:42:25.645Z,77.68
2022-08-31T22:44:56.239Z,77.78
2022-08-31T22:47:26.502Z,77.66
2022-08-31T22:49:56.945Z,77.93
2022-08-31T22:52:29.761Z,78.97
2022-08-31T22:55:00.146Z,79.17
2022-08-31T22:57:30.293Z,79.18
2022-08-31T23:00:00.669Z,79.63
2022-08-31T23:02:31.410Z,79.61
2022-08-31T23:05:03.519Z,80.61
2022-08-31T23:07:36.806Z,79.77
2022-08-31T23:10:09.488Z,79.13
2022-08-31T23:12:40.092Z,80.57
2022-08-31T23:15:15.162Z,81.14
2022-08-31T23:17:47.768Z,81.80
2022-08-31T23:20:24.507Z,81.16
2022-08-31T23:22:58.115Z,81.40
2022-08-31T23:25:28.475Z,81.17
2022-08-31T23:27:58.912Z,81.09
2022-08-31T23:30:30.354Z,80.83
2022-08-31T23:33:02.345Z,80.45
2022-08-31T23:35:33.699Z,80.69
2022-08-31T23:38:06.607Z,80.71
2022-08-31T23:40:37.113Z,81.13
2022-08-31T23:43:11.023Z,81.76
2022-08-31T23:45:42.050Z,81.60
2022-08-31T23:48:12.742Z,80.96
2022-08-31T23:50:43.130Z,80.65
2022-08-31T23:53:17.510Z,81.09
2022-08-31T23:55:50.748Z,81.42
2022-08-31T23:58:21.034Z,81.63
